createdAt,value
2024-02-02T00:01:19.389Z,7.50
2024-02-02T00:03:46.455Z,7.50
2024-02-02T00:06:13.653Z,7.50
2024-02-02T00:08:40.641Z,7.60
2024-02-02T00:11:07.605Z,7.60
2024-02-02T00:13:34.721Z,7.60
2024-02-02T00:16:01.673Z,7.60
2024-02-02T00:18:29.741Z,7.50
2024-02-02T00:20:57.680Z,7.50
2024-02-02T00:23:25.000Z,7.50
2024-02-02T00:25:52.028Z,7.40
2024-02-02T00:28:19.050Z,7.40
2024-02-02T00:30:46.943Z,7.40
2024-02-02T00:33:14.040Z,7.30
2024-02-02T00:35:41.825Z,7.30
2024-02-02T00:38:08.812Z,7.20
2024-02-02T00:40:36.609Z,7.20
2024-02-02T00:43:03.924Z,7.20
2024-02-02T00:45:30.975Z,7.20
2024-02-02T00:47:58.256Z,7.20
2024-02-02T00:50:25.589Z,7.20
2024-02-02T00:52:53.076Z,7.20
2024-02-02T00:55:20.115Z,7.20
2024-02-02T00:57:47.211Z,7.20
2024-02-02T01:00:14.368Z,7.20
2024-02-02T01:02:42.211Z,7.10
2024-02-02T01:05:12.544Z,7.10
2024-02-02T01:07:39.613Z,7.10
2024-02-02T01:10:07.571Z,7.10
2024-02-02T01:12:35.727Z,7.00
2024-02-02T01:15:04.934Z,7.10
2024-02-02T01:17:32.182Z,7.10
2024-02-02T01:20:04.967Z,7.00
2024-02-02T01:22:32.205Z,7.00
2024-02-02T01:25:01.210Z,7.00
2024-02-02T01:27:28.191Z,7.00
2024-02-02T01:29:56.862Z,7.00
2024-02-02T01:32:23.952Z,7.00
2024-02-02T01:34:53.315Z,7.00
2024-02-02T01:37:20.409Z,7.00
2024-02-02T01:39:47.796Z,7.00
2024-02-02T01:42:14.878Z,7.10
2024-02-02T01:44:42.193Z,7.10
2024-02-02T01:47:09.303Z,7.10
2024-02-02T01:49:37.976Z,7.10
2024-02-02T01:52:05.891Z,7.20
2024-02-02T01:54:33.360Z,7.20
2024-02-02T01:57:01.798Z,7.20
2024-02-02T01:59:29.527Z,7.20
2024-02-02T02:01:56.804Z,7.20
2024-02-02T02:04:24.648Z,7.20
2024-02-02T02:06:51.820Z,7.20
2024-02-02T02:09:19.281Z,7.30
2024-02-02T02:11:46.367Z,7.30
2024-02-02T02:14:13.673Z,7.30
2024-02-02T02:16:41.455Z,7.30
2024-02-02T02:19:15.785Z,7.30
2024-02-02T02:21:43.714Z,7.30
2024-02-02T02:24:11.354Z,7.30
2024-02-02T02:26:39.964Z,7.30
2024-02-02T02:29:07.265Z,7.30
2024-02-02T02:31:34.627Z,7.30
2024-02-02T02:34:02.009Z,7.30
2024-02-02T02:36:29.184Z,7.30
2024-02-02T02:38:56.204Z,7.30
2024-02-02T02:41:23.608Z,7.30
2024-02-02T02:43:50.669Z,7.30
2024-02-02T02:46:17.815Z,7.40
2024-02-02T02:48:44.875Z,7.40
2024-02-02T02:51:12.133Z,7.40
2024-02-02T02:53:39.134Z,7.40
2024-02-02T02:56:06.354Z,7.40
2024-02-02T02:58:33.194Z,7.40
2024-02-02T03:01:00.238Z,7.40
2024-02-02T03:03:27.444Z,7.40
2024-02-02T03:05:54.890Z,7.50
2024-02-02T03:08:22.433Z,7.50
2024-02-02T03:10:49.399Z,7.50
2024-02-02T03:13:16.757Z,7.60
2024-02-02T03:15:43.871Z,7.60
2024-02-02T03:18:12.764Z,7.70
2024-02-02T03:20:39.842Z,7.70
2024-02-02T03:23:06.938Z,7.80
2024-02-02T03:25:34.055Z,7.80
2024-02-02T03:28:01.746Z,7.90
2024-02-02T03:30:29.105Z,7.90
2024-02-02T03:32:56.417Z,7.90
2024-02-02T03:35:23.635Z,8.00
2024-02-02T03:37:51.242Z,8.00
2024-02-02T03:40:18.141Z,8.00
2024-02-02T03:42:45.146Z,8.10
2024-02-02T03:45:13.071Z,8.10
2024-02-02T03:47:40.123Z,8.10
2024-02-02T03:50:07.848Z,8.10
2024-02-02T03:52:34.914Z,8.20
2024-02-02T03:55:01.892Z,8.20
2024-02-02T03:57:29.352Z,8.20
2024-02-02T03:59:56.285Z,8.20
2024-02-02T04:02:23.267Z,8.20
2024-02-02T04:04:50.310Z,8.20
2024-02-02T04:07:17.406Z,8.20
2024-02-02T04:09:44.562Z,8.20
2024-02-02T04:12:11.605Z,8.20
2024-02-02T04:14:38.570Z,8.20
2024-02-02T04:17:05.539Z,8.20
2024-02-02T04:19:32.558Z,8.20
2024-02-02T04:22:00.158Z,8.20
2024-02-02T04:24:27.408Z,8.30
2024-02-02T04:26:54.415Z,8.30
2024-02-02T04:29:21.754Z,8.30
2024-02-02T04:31:50.011Z,8.30
2024-02-02T04:34:17.850Z,8.20
2024-02-02T04:36:44.981Z,8.30
2024-02-02T04:39:12.248Z,8.30
2024-02-02T04:41:39.668Z,8.30
2024-02-02T04:44:06.943Z,8.30
2024-02-02T04:46:34.391Z,8.30
2024-02-02T04:49:01.555Z,8.30
2024-02-02T04:51:29.187Z,8.30
2024-02-02T04:53:56.343Z,8.30
2024-02-02T04:56:23.311Z,8.30
2024-02-02T04:58:53.387Z,8.30
2024-02-02T05:01:21.067Z,8.30
2024-02-02T05:03:49.321Z,8.40
2024-02-02T05:06:18.157Z,8.40
2024-02-02T05:08:45.612Z,8.40
2024-02-02T05:11:14.364Z,8.40
2024-02-02T05:13:41.293Z,8.50
2024-02-02T05:16:10.559Z,8.40
2024-02-02T05:18:38.758Z,8.40
2024-02-02T05:21:06.188Z,8.50
2024-02-02T05:23:33.680Z,8.50
2024-02-02T05:26:00.626Z,8.50
2024-02-02T05:28:27.982Z,8.50
2024-02-02T05:30:55.257Z,8.50
2024-02-02T05:33:22.457Z,8.50
2024-02-02T05:35:50.085Z,8.50
2024-02-02T05:38:17.380Z,8.60
2024-02-02T05:40:45.904Z,8.60
2024-02-02T05:43:13.862Z,8.60
2024-02-02T05:45:41.099Z,8.50
2024-02-02T05:48:08.562Z,8.60
2024-02-02T05:50:37.848Z,8.60
2024-02-02T05:53:05.377Z,8.60
2024-02-02T05:55:32.589Z,8.60
2024-02-02T05:58:00.179Z,8.60
2024-02-02T06:00:27.475Z,8.70
2024-02-02T06:02:54.814Z,8.70
2024-02-02T06:05:22.247Z,8.70
2024-02-02T06:07:49.409Z,8.70
2024-02-02T06:10:16.763Z,8.70
2024-02-02T06:12:44.598Z,8.80
2024-02-02T06:15:14.879Z,8.80
2024-02-02T06:17:42.037Z,8.80
2024-02-02T06:20:10.103Z,8.90
2024-02-02T06:22:38.590Z,8.90
2024-02-02T06:25:06.876Z,8.90
2024-02-02T06:27:34.896Z,8.90
2024-02-02T06:30:05.264Z,9.00
2024-02-02T06:32:33.387Z,9.00
2024-02-02T06:35:01.470Z,9.00
2024-02-02T06:37:28.921Z,9.10
2024-02-02T06:39:57.409Z,9.10
2024-02-02T06:42:27.660Z,9.10
2024-02-02T06:44:56.764Z,9.10
2024-02-02T06:47:24.703Z,9.20
2024-02-02T06:49:54.706Z,9.20
2024-02-02T06:52:23.261Z,9.20
2024-02-02T06:54:50.490Z,9.20
2024-02-02T06:57:19.127Z,9.30
2024-02-02T06:59:49.313Z,9.30
2024-02-02T07:02:31.715Z,9.30
2024-02-02T07:04:59.444Z,9.30
2024-02-02T07:07:29.457Z,9.40
2024-02-02T07:09:57.956Z,9.40
2024-02-02T07:12:57.825Z,9.40
2024-02-02T07:15:47.073Z,9.40
2024-02-02T07:18:52.116Z,9.40
2024-02-02T07:21:21.414Z,9.40
2024-02-02T07:23:51.289Z,9.50
2024-02-02T07:26:27.800Z,9.50
2024-02-02T07:28:59.220Z,9.50
2024-02-02T07:31:48.558Z,9.50
2024-02-02T07:34:55.283Z,9.50
2024-02-02T07:37:50.665Z,9.50
2024-02-02T07:40:58.012Z,9.60
2024-02-02T07:43:25.607Z,9.50
2024-02-02T07:45:52.722Z,9.60
2024-02-02T07:48:21.098Z,9.60
2024-02-02T07:50:50.131Z,9.60
2024-02-02T07:53:17.239Z,9.60
2024-02-02T07:55:44.416Z,9.60
2024-02-02T07:58:11.551Z,9.60
2024-02-02T08:00:39.340Z,9.70
2024-02-02T08:03:11.401Z,9.70
2024-02-02T08:05:40.535Z,9.70
2024-02-02T08:08:08.937Z,9.70
2024-02-02T08:10:36.197Z,9.70
2024-02-02T08:13:03.624Z,9.70
2024-02-02T08:15:31.303Z,9.70
2024-02-02T08:17:58.882Z,9.70
2024-02-02T08:20:26.105Z,9.80
2024-02-02T08:22:54.128Z,9.80
2024-02-02T08:25:21.201Z,9.80
2024-02-02T08:27:48.649Z,9.80
2024-02-02T08:30:16.331Z,9.80
2024-02-02T08:32:46.306Z,9.80
2024-02-02T08:35:13.558Z,9.90
2024-02-02T08:37:41.283Z,9.90
2024-02-02T08:40:23.438Z,9.90
2024-02-02T08:42:53.542Z,9.90
2024-02-02T08:45:42.860Z,9.90
2024-02-02T08:48:36.434Z,9.90
2024-02-02T08:51:10.370Z,9.90
2024-02-02T08:53:37.411Z,10.00
2024-02-02T08:56:11.027Z,10.00
2024-02-02T08:58:38.203Z,10.00
2024-02-02T09:01:06.688Z,10.00
2024-02-02T09:03:33.798Z,10.00
2024-02-02T09:06:06.218Z,10.00
2024-02-02T09:08:36.251Z,10.00
2024-02-02T09:11:19.054Z,10.00
2024-02-02T09:13:46.938Z,10.00
2024-02-02T09:16:18.893Z,10.10
2024-02-02T09:18:50.927Z,10.10
2024-02-02T09:21:20.990Z,10.10
2024-02-02T09:23:51.129Z,10.10
2024-02-02T09:26:38.523Z,10.10
2024-02-02T09:29:06.392Z,10.20
2024-02-02T09:31:37.461Z,10.20
2024-02-02T09:34:10.771Z,10.30
2024-02-02T09:36:41.394Z,10.50
2024-02-02T09:39:45.483Z,10.60
2024-02-02T09:42:19.196Z,10.80
2024-02-02T09:45:00.828Z,10.90
2024-02-02T09:47:58.332Z,11.10
2024-02-02T09:50:28.953Z,11.20
2024-02-02T09:53:14.832Z,11.40
2024-02-02T09:55:56.384Z,11.50
2024-02-02T09:58:50.231Z,11.70
2024-02-02T10:01:48.989Z,11.90
2024-02-02T10:04:53.159Z,12.10
2024-02-02T10:07:51.249Z,12.30
2024-02-02T10:10:57.338Z,12.50
2024-02-02T10:13:55.478Z,12.80
2024-02-02T10:16:53.446Z,13.00
2024-02-02T10:19:35.522Z,13.10
2024-02-02T10:22:48.255Z,13.30
2024-02-02T10:25:39.096Z,13.50
2024-02-02T10:28:27.314Z,13.70
2024-02-02T10:31:14.064Z,13.80
2024-02-02T10:33:59.039Z,13.90
2024-02-02T10:36:36.401Z,14.00
2024-02-02T10:39:21.065Z,14.00
2024-02-02T10:42:04.986Z,14.10
2024-02-02T10:44:41.352Z,14.10
2024-02-02T10:47:30.136Z,14.10
2024-02-02T10:50:11.152Z,14.10
2024-02-02T10:52:50.141Z,14.10
2024-02-02T10:55:25.861Z,14.10
2024-02-02T10:58:07.801Z,14.10
2024-02-02T11:00:49.300Z,14.10
2024-02-02T11:03:29.429Z,14.10
2024-02-02T11:06:22.049Z,14.10
2024-02-02T11:09:11.016Z,14.20
2024-02-02T11:11:44.183Z,14.10
2024-02-02T11:14:37.165Z,14.20
2024-02-02T11:17:27.567Z,14.10
2024-02-02T11:20:15.340Z,14.10
2024-02-02T11:23:03.087Z,14.10
2024-02-02T11:26:21.294Z,14.10
2024-02-02T11:29:36.331Z,14.00
2024-02-02T11:32:12.901Z,14.00
2024-02-02T11:40:28.948Z,13.90
2024-02-02T11:42:59.540Z,13.90
2024-02-02T11:45:38.627Z,13.90
2024-02-02T11:48:07.139Z,13.80
2024-02-02T11:50:49.663Z,13.80
2024-02-02T11:53:19.651Z,13.80
2024-02-02T11:55:52.704Z,13.80
2024-02-02T11:58:21.419Z,13.70
2024-02-02T12:01:18.669Z,13.70
2024-02-02T12:04:08.730Z,13.70
2024-02-02T12:09:41.333Z,13.70
2024-02-02T12:12:19.282Z,13.60
2024-02-02T12:14:52.671Z,13.60
2024-02-02T12:17:22.563Z,13.50
2024-02-02T12:19:50.358Z,13.50
2024-02-02T12:22:18.049Z,13.50
2024-02-02T12:24:47.249Z,13.50
2024-02-02T12:27:20.455Z,13.50
2024-02-02T12:29:48.245Z,13.60
2024-02-02T12:32:15.240Z,13.50
2024-02-02T12:34:43.277Z,13.50
2024-02-02T12:37:12.639Z,13.50
2024-02-02T12:39:39.877Z,13.50
2024-02-02T12:42:07.900Z,13.50
2024-02-02T12:44:35.192Z,13.50
2024-02-02T12:47:05.776Z,13.50
2024-02-02T12:49:34.693Z,13.50
2024-02-02T12:52:02.441Z,13.50
2024-02-02T12:54:29.503Z,13.50
2024-02-02T12:56:56.763Z,13.50
2024-02-02T12:59:25.426Z,13.50
2024-02-02T13:01:52.906Z,13.50
2024-02-02T13:04:20.702Z,13.50
2024-02-02T13:06:48.247Z,13.50
2024-02-02T13:09:31.071Z,13.50
2024-02-02T13:11:59.862Z,13.50
2024-02-02T13:14:35.545Z,13.50
2024-02-02T13:17:17.221Z,13.50
2024-02-02T13:19:47.280Z,13.50
2024-02-02T13:22:30.578Z,13.60
2024-02-02T13:24:58.742Z,13.50
2024-02-02T13:27:32.336Z,13.60
2024-02-02T13:30:04.185Z,13.60
2024-02-02T13:32:39.780Z,13.60
2024-02-02T13:35:10.798Z,13.60
2024-02-02T13:37:44.662Z,13.60
2024-02-02T13:40:14.309Z,13.60
2024-02-02T13:42:41.913Z,13.60
2024-02-02T13:45:16.993Z,13.60
2024-02-02T13:47:48.315Z,13.60
2024-02-02T13:50:22.158Z,13.70
2024-02-02T13:52:51.265Z,13.70
2024-02-02T13:55:20.337Z,13.70
2024-02-02T13:57:49.549Z,13.70
2024-02-02T14:00:17.541Z,13.70
2024-02-02T14:02:44.575Z,13.80
2024-02-02T14:05:12.724Z,13.80
2024-02-02T14:07:39.726Z,13.80
2024-02-02T14:10:12.917Z,13.80
2024-02-02T14:12:40.322Z,13.80
2024-02-02T14:15:08.206Z,13.80
2024-02-02T14:17:35.788Z,13.80
2024-02-02T14:20:05.533Z,13.90
2024-02-02T14:22:34.042Z,13.90
2024-02-02T14:25:01.142Z,13.90
2024-02-02T14:27:40.179Z,13.90
2024-02-02T14:30:09.711Z,13.90
2024-02-02T14:32:37.720Z,13.90
2024-02-02T14:35:06.073Z,13.90
2024-02-02T14:37:34.113Z,13.90
2024-02-02T14:40:02.373Z,13.90
2024-02-02T14:42:29.595Z,14.00
2024-02-02T14:44:57.337Z,14.00
2024-02-02T14:47:24.374Z,14.00
2024-02-02T14:49:52.244Z,14.00
2024-02-02T14:52:19.597Z,14.00
2024-02-02T14:54:46.673Z,14.00
2024-02-02T14:57:18.338Z,14.00
2024-02-02T14:59:51.454Z,14.00
2024-02-02T15:02:19.304Z,14.00
2024-02-02T15:04:46.575Z,14.00
2024-02-02T15:07:14.735Z,14.00
2024-02-02T15:09:42.956Z,14.00
2024-02-02T15:12:10.493Z,14.00
2024-02-02T15:14:37.756Z,14.00
2024-02-02T15:17:05.642Z,14.00
2024-02-02T15:19:33.221Z,14.00
2024-02-02T15:22:00.294Z,14.00
2024-02-02T15:24:27.451Z,14.00
2024-02-02T15:26:56.020Z,14.00
2024-02-02T15:29:24.075Z,14.00
2024-02-02T15:31:51.130Z,14.00
2024-02-02T15:34:18.631Z,14.00
2024-02-02T15:36:45.946Z,14.00
2024-02-02T15:39:23.599Z,14.00
2024-02-02T15:41:57.645Z,13.90
2024-02-02T15:44:25.501Z,13.90
2024-02-02T15:46:53.126Z,13.90
2024-02-02T15:49:20.319Z,13.90
2024-02-02T15:51:49.228Z,13.90
2024-02-02T15:54:17.463Z,13.90
2024-02-02T15:56:45.531Z,13.90
2024-02-02T15:59:16.472Z,13.90
2024-02-02T16:01:48.226Z,13.90
2024-02-02T16:04:15.924Z,13.90
2024-02-02T16:06:43.677Z,13.90
2024-02-02T16:09:11.384Z,13.80
2024-02-02T16:11:38.572Z,13.80
2024-02-02T16:14:05.688Z,13.80
2024-02-02T16:16:32.789Z,13.80
2024-02-02T16:19:00.018Z,13.80
2024-02-02T16:21:28.126Z,13.80
2024-02-02T16:23:55.951Z,13.80
2024-02-02T16:26:23.535Z,13.80
2024-02-02T16:28:50.678Z,13.80
2024-02-02T16:31:17.738Z,13.80
2024-02-02T16:33:46.303Z,13.70
2024-02-02T16:36:13.606Z,13.70
2024-02-02T16:38:41.749Z,13.70
2024-02-02T16:41:14.058Z,13.70
2024-02-02T16:43:41.249Z,13.70
2024-02-02T16:46:08.353Z,13.60
2024-02-02T16:48:36.977Z,13.60
2024-02-02T16:51:05.132Z,13.60
2024-02-02T16:53:32.206Z,13.60
2024-02-02T16:55:59.530Z,13.60
2024-02-02T16:58:30.278Z,13.50
2024-02-02T17:01:00.163Z,13.50
2024-02-02T17:03:27.459Z,13.50
2024-02-02T17:05:54.532Z,13.50
2024-02-02T17:08:22.068Z,13.50
2024-02-02T17:10:49.904Z,13.50
2024-02-02T17:13:19.803Z,13.50
2024-02-02T17:15:46.998Z,13.50
2024-02-02T17:18:14.266Z,13.40
2024-02-02T17:20:41.783Z,13.50
2024-02-02T17:23:09.001Z,13.40
2024-02-02T17:25:36.881Z,13.50
2024-02-02T17:28:04.644Z,13.40
2024-02-02T17:30:31.709Z,13.40
2024-02-02T17:33:00.365Z,13.40
2024-02-02T17:35:34.234Z,13.40
2024-02-02T17:38:08.039Z,13.40
2024-02-02T17:40:34.970Z,13.40
2024-02-02T17:43:02.032Z,13.40
2024-02-02T17:45:28.954Z,13.30
2024-02-02T17:47:56.344Z,13.30
2024-02-02T17:50:23.421Z,13.40
2024-02-02T17:52:50.509Z,13.30
2024-02-02T17:55:18.610Z,13.40
2024-02-02T17:57:45.570Z,13.30
2024-02-02T18:00:13.332Z,13.30
2024-02-02T18:02:40.766Z,13.30
2024-02-02T18:05:07.968Z,13.30
2024-02-02T18:07:44.376Z,13.30
2024-02-02T18:10:14.897Z,13.30
2024-02-02T18:12:41.914Z,13.30
2024-02-02T18:15:09.544Z,13.30
2024-02-02T18:17:36.627Z,13.30
2024-02-02T18:20:05.022Z,13.20
2024-02-02T18:22:31.982Z,13.20
2024-02-02T18:24:58.974Z,13.20
2024-02-02T18:27:25.949Z,13.20
2024-02-02T18:29:53.645Z,13.30
2024-02-02T18:32:21.052Z,13.20
2024-02-02T18:34:48.662Z,13.20
2024-02-02T18:37:16.001Z,13.20
2024-02-02T18:39:43.144Z,13.20
2024-02-02T18:42:10.798Z,13.20
2024-02-02T18:44:37.701Z,13.20
2024-02-02T18:47:04.868Z,13.20
2024-02-02T18:49:32.025Z,13.20
2024-02-02T18:51:58.988Z,13.20
2024-02-02T18:54:26.167Z,13.10
2024-02-02T18:56:53.559Z,13.20
2024-02-02T18:59:20.415Z,13.20
2024-02-02T19:01:47.760Z,13.10
2024-02-02T19:04:14.825Z,13.10
2024-02-02T19:06:41.881Z,13.10
2024-02-02T19:09:11.743Z,13.10
2024-02-02T19:11:38.729Z,13.10
2024-02-02T19:14:12.870Z,13.10
2024-02-02T19:16:41.232Z,13.10
2024-02-02T19:19:09.088Z,13.10
2024-02-02T19:21:36.561Z,13.10
2024-02-02T19:24:05.686Z,13.10
2024-02-02T19:26:32.762Z,13.00
2024-02-02T19:28:59.640Z,13.00
2024-02-02T19:31:30.313Z,13.00
2024-02-02T19:33:58.087Z,13.00
2024-02-02T19:36:27.549Z,13.00
2024-02-02T19:38:56.005Z,13.00
2024-02-02T19:41:24.923Z,13.00
2024-02-02T19:43:53.108Z,13.00
2024-02-02T19:46:24.269Z,13.00
2024-02-02T19:48:52.761Z,13.00
2024-02-02T19:51:21.548Z,13.00
2024-02-02T19:53:48.798Z,12.90
2024-02-02T19:56:15.840Z,12.90
2024-02-02T19:58:43.293Z,12.90
2024-02-02T20:01:18.070Z,12.90
2024-02-02T20:03:46.924Z,12.90
2024-02-02T20:06:15.611Z,12.90
2024-02-02T20:08:43.093Z,12.90
2024-02-02T20:11:17.095Z,12.90
2024-02-02T20:13:44.549Z,12.90
2024-02-02T20:16:15.621Z,12.90
2024-02-02T20:18:43.326Z,12.90
2024-02-02T20:21:13.703Z,12.80
2024-02-02T20:23:41.278Z,12.90
2024-02-02T20:26:09.371Z,12.90
2024-02-02T20:28:36.462Z,12.80
2024-02-02T20:31:04.346Z,12.90
2024-02-02T20:33:31.280Z,12.90
2024-02-02T20:35:58.212Z,12.80
2024-02-02T20:38:25.155Z,12.80
2024-02-02T20:40:53.081Z,12.80
2024-02-02T20:43:20.196Z,12.80
2024-02-02T20:45:47.203Z,12.80
2024-02-02T20:48:14.388Z,12.80
2024-02-02T20:50:41.302Z,12.80
2024-02-02T20:53:08.366Z,12.80
2024-02-02T20:55:35.302Z,12.80
2024-02-02T20:58:02.814Z,12.80
2024-02-02T21:00:31.322Z,12.70
2024-02-02T21:02:58.359Z,12.70
2024-02-02T21:05:25.846Z,12.70
2024-02-02T21:07:53.695Z,12.70
2024-02-02T21:10:20.914Z,12.70
2024-02-02T21:12:48.006Z,12.70
2024-02-02T21:15:15.532Z,12.70
2024-02-02T21:17:48.665Z,12.70
2024-02-02T21:20:15.784Z,12.70
2024-02-02T21:22:42.853Z,12.70
2024-02-02T21:25:10.373Z,12.70
2024-02-02T21:27:37.443Z,12.70
2024-02-02T21:30:06.489Z,12.70
2024-02-02T21:32:33.467Z,12.70
2024-02-02T21:35:00.608Z,12.80
2024-02-02T21:37:27.636Z,12.70
2024-02-02T21:39:54.890Z,12.80
2024-02-02T21:42:21.805Z,12.80
2024-02-02T21:44:48.693Z,12.80
2024-02-02T21:47:15.603Z,12.80
2024-02-02T21:49:44.464Z,12.80
2024-02-02T21:52:11.707Z,12.80
2024-02-02T21:54:38.594Z,12.80
2024-02-02T21:57:05.872Z,12.80
2024-02-02T21:59:32.750Z,12.80
2024-02-02T22:01:59.639Z,12.80
2024-02-02T22:04:26.554Z,12.80
2024-02-02T22:06:53.733Z,12.80
2024-02-02T22:09:20.748Z,12.80
2024-02-02T22:11:47.686Z,12.80
2024-02-02T22:14:14.579Z,12.80
2024-02-02T22:16:41.452Z,12.80
2024-02-02T22:19:08.416Z,12.90
2024-02-02T22:21:36.429Z,12.90
2024-02-02T22:24:03.729Z,12.80
2024-02-02T22:26:32.273Z,12.90
2024-02-02T22:29:01.613Z,12.90
2024-02-02T22:31:28.624Z,12.80
2024-02-02T22:33:56.125Z,12.80
2024-02-02T22:36:26.923Z,12.80
2024-02-02T22:38:56.042Z,12.90
2024-02-02T22:41:32.786Z,12.80
2024-02-02T22:44:02.454Z,12.80
2024-02-02T22:46:34.264Z,12.80
2024-02-02T22:49:01.963Z,12.90
2024-02-02T22:51:29.238Z,12.90
2024-02-02T22:53:56.187Z,12.90
2024-02-02T22:56:23.159Z,12.90
2024-02-02T22:58:50.029Z,12.80
2024-02-02T23:01:17.419Z,12.90
2024-02-02T23:03:44.411Z,12.90
2024-02-02T23:06:11.549Z,12.90
2024-02-02T23:08:38.457Z,12.80
2024-02-02T23:11:05.358Z,12.90
2024-02-02T23:13:32.240Z,12.90
2024-02-02T23:15:59.961Z,12.90
2024-02-02T23:18:31.041Z,12.90
2024-02-02T23:21:00.287Z,12.90
2024-02-02T23:23:27.674Z,12.90
2024-02-02T23:25:54.557Z,12.90
2024-02-02T23:28:22.214Z,12.90
2024-02-02T23:30:49.885Z,12.90
2024-02-02T23:33:17.023Z,12.90
2024-02-02T23:35:44.431Z,12.90
2024-02-02T23:38:11.854Z,12.90
2024-02-02T23:40:38.897Z,12.90
2024-02-02T23:43:06.254Z,12.90
2024-02-02T23:45:33.408Z,12.90
2024-02-02T23:48:00.622Z,12.90
2024-02-02T23:50:28.871Z,12.90
2024-02-02T23:52:56.121Z,12.90
2024-02-02T23:55:23.288Z,12.90
2024-02-02T23:57:51.199Z,12.90
